createdAt,value
2023-11-22T00:01:27.740Z,1.45
2023-11-22T00:03:56.725Z,1.60
2023-11-22T00:06:28.664Z,2.28
2023-11-22T00:08:56.256Z,2.25
2023-11-22T00:11:23.849Z,1.70
2023-11-22T00:13:58.300Z,1.77
2023-11-22T00:16:26.393Z,1.75
2023-11-22T00:18:54.036Z,1.67
2023-11-22T00:21:22.181Z,1.27
2023-11-22T00:23:50.024Z,1.45
2023-11-22T00:26:17.841Z,1.63
2023-11-22T00:28:45.629Z,1.42
2023-11-22T00:31:16.105Z,1.73
2023-11-22T00:33:44.359Z,1.67
2023-11-22T00:36:12.130Z,1.50
2023-11-22T00:38:40.924Z,1.40
2023-11-22T00:41:09.018Z,1.65
2023-11-22T00:43:37.024Z,1.20
2023-11-22T00:46:04.892Z,1.40
2023-11-22T00:48:32.764Z,1.85
2023-11-22T00:51:00.766Z,1.58
2023-11-22T00:53:28.606Z,1.63
2023-11-22T00:55:57.346Z,1.08
2023-11-22T00:58:25.377Z,1.60
2023-11-22T01:00:53.172Z,1.20
2023-11-22T01:03:20.886Z,1.52
2023-11-22T01:05:48.546Z,1.50
2023-11-22T01:08:16.262Z,1.60
2023-11-22T01:10:43.910Z,1.38
2023-11-22T01:13:11.571Z,1.58
2023-11-22T01:15:39.485Z,1.48
2023-11-22T01:18:07.220Z,1.45
2023-11-22T01:20:35.047Z,1.17
2023-11-22T01:23:02.844Z,1.95
2023-11-22T01:25:30.664Z,1.77
2023-11-22T01:27:58.435Z,1.40
2023-11-22T01:30:26.156Z,1.10
2023-11-22T01:32:53.961Z,1.50
2023-11-22T01:35:21.655Z,1.42
2023-11-22T01:37:50.759Z,1.90
2023-11-22T01:40:20.859Z,1.70
2023-11-22T01:42:48.685Z,1.40
2023-11-22T01:45:16.463Z,1.70
2023-11-22T01:47:44.901Z,1.40
2023-11-22T01:50:16.030Z,1.52
2023-11-22T01:52:44.346Z,1.80
2023-11-22T01:55:12.282Z,1.75
2023-11-22T01:57:40.279Z,1.48
2023-11-22T02:00:16.405Z,1.55
2023-11-22T02:02:45.900Z,1.80
2023-11-22T02:05:14.033Z,1.80
2023-11-22T02:07:42.918Z,1.48
2023-11-22T02:10:11.280Z,1.52
2023-11-22T02:12:39.091Z,2.38
2023-11-22T02:15:07.440Z,1.60
2023-11-22T02:17:35.875Z,1.70
2023-11-22T02:20:07.713Z,1.35
2023-11-22T02:25:03.393Z,1.63
2023-11-22T02:27:31.086Z,1.45
2023-11-22T02:29:58.977Z,1.52
2023-11-22T02:32:28.368Z,1.60
2023-11-22T02:34:56.889Z,1.80
2023-11-22T02:37:26.356Z,1.65
2023-11-22T02:40:21.320Z,1.60
2023-11-22T02:42:52.591Z,1.52
2023-11-22T02:45:25.426Z,1.42
2023-11-22T02:47:54.096Z,1.55
2023-11-22T02:50:22.208Z,1.70
2023-11-22T02:52:49.889Z,1.70
2023-11-22T02:55:17.920Z,1.42
2023-11-22T02:57:49.421Z,1.33
2023-11-22T03:00:17.492Z,1.48
2023-11-22T03:02:46.875Z,1.42
2023-11-22T03:05:18.401Z,1.52
2023-11-22T03:07:46.785Z,1.63
2023-11-22T03:10:15.270Z,1.55
2023-11-22T03:12:43.473Z,1.73
2023-11-22T03:15:12.101Z,1.60
2023-11-22T03:17:40.355Z,1.50
2023-11-22T03:20:12.839Z,2.25
2023-11-22T03:22:41.177Z,1.40
2023-11-22T03:25:11.628Z,1.35
2023-11-22T03:27:40.329Z,1.63
2023-11-22T03:30:13.358Z,1.38
2023-11-22T03:32:42.032Z,1.60
2023-11-22T03:35:10.241Z,1.13
2023-11-22T03:37:38.729Z,1.50
2023-11-22T03:40:06.953Z,1.50
2023-11-22T03:42:34.596Z,1.60
2023-11-22T03:45:02.560Z,1.73
2023-11-22T03:47:34.618Z,1.90
2023-11-22T03:50:02.759Z,1.67
2023-11-22T03:52:33.526Z,1.30
2023-11-22T03:55:01.431Z,1.30
2023-11-22T03:57:29.076Z,1.65
2023-11-22T03:59:56.671Z,1.60
2023-11-22T04:02:24.401Z,1.92
2023-11-22T04:04:52.189Z,1.77
2023-11-22T04:07:20.493Z,2.00
2023-11-22T04:09:48.128Z,1.48
2023-11-22T04:12:15.892Z,2.03
2023-11-22T04:14:43.822Z,1.67
2023-11-22T04:17:14.873Z,2.17
2023-11-22T04:19:43.060Z,1.50
2023-11-22T04:22:14.227Z,1.45
2023-11-22T04:24:42.080Z,2.07
2023-11-22T04:27:09.810Z,2.10
2023-11-22T04:29:37.730Z,1.90
2023-11-22T04:32:06.060Z,1.88
2023-11-22T04:34:33.985Z,2.05
2023-11-22T04:37:01.596Z,1.60
2023-11-22T04:39:29.322Z,2.15
2023-11-22T04:41:57.110Z,1.80
2023-11-22T04:44:25.098Z,1.55
2023-11-22T04:46:53.026Z,1.95
2023-11-22T04:49:20.791Z,2.00
2023-11-22T04:51:48.577Z,2.10
2023-11-22T04:54:16.206Z,2.15
2023-11-22T04:56:44.315Z,2.20
2023-11-22T04:59:12.122Z,1.98
2023-11-22T05:04:30.960Z,1.70
2023-11-22T05:06:58.615Z,1.63
2023-11-22T05:09:26.290Z,1.50
2023-11-22T05:11:53.861Z,1.40
2023-11-22T05:14:21.621Z,1.98
2023-11-22T05:16:49.232Z,1.70
2023-11-22T05:19:16.781Z,1.73
2023-11-22T05:21:44.492Z,1.60
2023-11-22T05:24:12.244Z,1.25
2023-11-22T05:26:39.965Z,3.08
2023-11-22T05:29:07.646Z,2.03
2023-11-22T05:31:35.248Z,1.73
2023-11-22T05:34:03.091Z,1.60
2023-11-22T05:36:31.508Z,1.70
2023-11-22T05:39:01.994Z,1.58
2023-11-22T05:41:29.694Z,1.60
2023-11-22T05:43:57.578Z,1.42
2023-11-22T05:46:26.263Z,1.40
2023-11-22T05:48:54.454Z,1.42
2023-11-22T05:51:22.368Z,1.30
2023-11-22T05:53:49.925Z,1.88
2023-11-22T05:56:18.286Z,1.88
2023-11-22T05:58:46.205Z,1.63
2023-11-22T06:01:13.769Z,1.77
2023-11-22T06:03:41.677Z,1.73
2023-11-22T06:06:09.647Z,1.38
2023-11-22T06:08:37.572Z,1.67
2023-11-22T06:11:05.265Z,1.60
2023-11-22T06:13:33.104Z,1.48
2023-11-22T06:16:00.705Z,1.30
2023-11-22T06:18:31.321Z,1.60
2023-11-22T06:20:59.018Z,1.90
2023-11-22T06:23:26.715Z,1.75
2023-11-22T06:25:54.504Z,1.98
2023-11-22T06:28:23.954Z,1.77
2023-11-22T06:30:51.834Z,1.88
2023-11-22T06:33:19.700Z,1.25
2023-11-22T06:35:48.131Z,1.85
2023-11-22T06:38:15.924Z,2.00
2023-11-22T06:40:43.637Z,2.13
2023-11-22T06:43:11.466Z,2.13
2023-11-22T06:45:39.186Z,1.88
2023-11-22T06:48:10.262Z,2.63
2023-11-22T06:50:38.243Z,1.88
2023-11-22T06:53:06.052Z,1.65
2023-11-22T06:56:07.368Z,1.92
2023-11-22T06:58:36.104Z,2.58
2023-11-22T07:01:03.910Z,1.38
2023-11-22T07:03:32.853Z,2.33
2023-11-22T07:06:00.908Z,2.00
2023-11-22T07:08:29.848Z,1.50
2023-11-22T07:10:58.135Z,2.30
2023-11-22T07:13:26.173Z,2.78
2023-11-22T07:15:55.148Z,2.17
2023-11-22T07:18:25.672Z,2.58
2023-11-22T07:20:55.072Z,2.53
2023-11-22T07:23:26.874Z,3.03
2023-11-22T07:25:55.813Z,3.55
2023-11-22T07:28:23.553Z,3.47
2023-11-22T07:30:51.247Z,2.95
2023-11-22T07:33:21.847Z,3.10
2023-11-22T07:35:49.838Z,3.22
2023-11-22T07:38:18.681Z,2.60
2023-11-22T07:40:46.525Z,3.13
2023-11-22T07:43:14.260Z,3.40
2023-11-22T07:45:42.234Z,3.15
2023-11-22T07:48:12.615Z,3.03
2023-11-22T07:50:40.684Z,3.17
2023-11-22T07:53:10.428Z,3.83
2023-11-22T07:55:39.114Z,3.22
2023-11-22T07:58:10.007Z,2.75
2023-11-22T08:00:43.251Z,2.83
2023-11-22T08:03:16.873Z,2.85
2023-11-22T08:05:49.540Z,3.63
2023-11-22T08:08:17.210Z,3.30
2023-11-22T08:10:45.170Z,3.10
2023-11-22T08:13:12.733Z,3.65
2023-11-22T08:15:40.633Z,3.15
2023-11-22T08:18:08.816Z,2.97
2023-11-22T08:20:36.941Z,3.10
2023-11-22T08:23:07.339Z,3.50
2023-11-22T08:25:34.923Z,3.08
2023-11-22T08:28:02.695Z,3.53
2023-11-22T08:30:34.131Z,3.30
2023-11-22T08:33:01.940Z,3.47
2023-11-22T08:35:31.169Z,3.20
2023-11-22T08:37:59.754Z,3.55
2023-11-22T08:40:27.529Z,3.13
2023-11-22T08:42:55.630Z,3.40
2023-11-22T08:45:23.577Z,3.22
2023-11-22T08:47:52.733Z,3.92
2023-11-22T08:50:21.353Z,3.80
2023-11-22T08:52:49.142Z,3.85
2023-11-22T08:55:16.985Z,3.42
2023-11-22T08:57:44.734Z,3.22
2023-11-22T09:00:15.975Z,3.60
2023-11-22T09:02:43.963Z,3.40
2023-11-22T09:05:14.480Z,3.20
2023-11-22T09:07:42.461Z,3.80
2023-11-22T09:10:11.749Z,3.78
2023-11-22T09:12:40.765Z,3.67
2023-11-22T09:15:19.086Z,3.42
2023-11-22T09:17:48.314Z,4.30
2023-11-22T09:20:18.187Z,3.30
2023-11-22T09:22:50.652Z,4.05
2023-11-22T09:25:25.888Z,3.47
2023-11-22T09:27:56.800Z,4.18
2023-11-22T09:30:40.128Z,4.30
2023-11-22T09:33:10.572Z,4.60
2023-11-22T09:35:39.292Z,4.32
2023-11-22T09:38:15.802Z,3.83
2023-11-22T09:40:50.857Z,4.38
2023-11-22T09:43:20.491Z,6.38
2023-11-22T09:45:53.220Z,4.50
2023-11-22T09:48:24.848Z,4.57
2023-11-22T09:51:19.126Z,4.82
2023-11-22T09:54:15.552Z,5.68
2023-11-22T09:56:51.819Z,4.28
2023-11-22T09:59:20.947Z,4.28
2023-11-22T10:01:48.646Z,3.97
2023-11-22T10:04:16.758Z,5.22
2023-11-22T10:06:47.769Z,4.80
2023-11-22T10:09:15.733Z,4.30
2023-11-22T10:11:45.368Z,4.60
2023-11-22T10:14:16.717Z,4.82
2023-11-22T10:16:49.936Z,4.15
2023-11-22T10:19:20.205Z,4.55
2023-11-22T10:21:48.884Z,4.50
2023-11-22T10:24:23.197Z,4.47
2023-11-22T10:26:53.878Z,4.43
2023-11-22T10:29:21.673Z,4.88
2023-11-22T10:31:50.909Z,4.88
2023-11-22T10:34:21.612Z,4.40
2023-11-22T10:36:49.418Z,3.88
2023-11-22T10:39:27.635Z,4.20
2023-11-22T10:41:55.947Z,4.78
2023-11-22T10:44:24.777Z,4.65
2023-11-22T10:46:53.708Z,4.78
2023-11-22T10:49:22.812Z,4.50
2023-11-22T10:51:54.736Z,4.50
2023-11-22T10:54:25.947Z,4.85
2023-11-22T10:56:57.564Z,5.18
2023-11-22T11:01:56.126Z,4.82
2023-11-22T11:04:31.798Z,4.85
2023-11-22T11:06:59.996Z,4.65
2023-11-22T11:09:34.116Z,4.90
2023-11-22T11:12:08.460Z,4.97
2023-11-22T11:14:37.371Z,5.32
2023-11-22T11:17:06.143Z,5.47
2023-11-22T11:19:34.900Z,5.72
2023-11-22T11:22:03.044Z,6.15
2023-11-22T11:24:30.660Z,5.57
2023-11-22T11:27:04.929Z,6.95
2023-11-22T11:29:34.080Z,5.40
2023-11-22T11:32:03.652Z,5.35
2023-11-22T11:34:31.583Z,4.80
2023-11-22T11:37:01.600Z,4.78
2023-11-22T11:39:32.928Z,4.95
2023-11-22T11:42:14.303Z,4.82
2023-11-22T11:45:10.285Z,5.30
2023-11-22T11:47:38.128Z,3.95
2023-11-22T11:50:06.240Z,5.30
2023-11-22T11:52:34.020Z,4.88
2023-11-22T11:55:02.043Z,6.05
2023-11-22T11:57:33.549Z,4.95
2023-11-22T12:00:01.553Z,5.07
2023-11-22T12:02:30.446Z,4.80
2023-11-22T12:04:58.317Z,5.15
2023-11-22T12:07:26.129Z,4.43
2023-11-22T12:09:54.195Z,5.25
2023-11-22T12:12:22.073Z,4.30
2023-11-22T12:14:51.178Z,10.27
2023-11-22T12:17:19.571Z,5.13
2023-11-22T12:19:47.218Z,5.13
2023-11-22T12:22:15.247Z,4.90
2023-11-22T12:24:44.811Z,3.95
2023-11-22T12:27:12.562Z,4.38
2023-11-22T12:29:43.352Z,5.25
2023-11-22T12:32:13.346Z,5.13
2023-11-22T12:34:41.447Z,4.95
2023-11-22T12:37:09.505Z,4.85
2023-11-22T12:39:38.745Z,5.07
2023-11-22T12:42:11.184Z,5.40
2023-11-22T12:44:54.968Z,5.25
2023-11-22T12:47:38.977Z,5.65
2023-11-22T12:50:08.596Z,6.10
2023-11-22T12:52:36.533Z,6.30
2023-11-22T12:55:05.910Z,5.15
2023-11-22T12:57:34.239Z,4.45
2023-11-22T13:00:02.595Z,5.55
2023-11-22T13:02:31.686Z,5.43
2023-11-22T13:05:00.879Z,5.47
2023-11-22T13:07:28.587Z,5.03
2023-11-22T13:09:56.147Z,4.60
2023-11-22T13:12:25.632Z,5.45
2023-11-22T13:14:53.573Z,5.07
2023-11-22T13:17:21.361Z,5.53
2023-11-22T13:19:50.759Z,5.10
2023-11-22T13:22:20.617Z,4.75
2023-11-22T13:24:48.285Z,4.82
2023-11-22T13:27:15.933Z,4.80
2023-11-22T13:29:45.350Z,4.90
2023-11-22T13:32:13.289Z,5.07
2023-11-22T13:34:41.004Z,4.95
2023-11-22T13:37:08.537Z,4.85
2023-11-22T13:39:37.456Z,4.75
2023-11-22T13:42:05.582Z,4.85
2023-11-22T13:44:33.283Z,4.45
2023-11-22T13:47:01.297Z,4.28
2023-11-22T13:49:28.881Z,4.00
2023-11-22T13:51:56.790Z,4.28
2023-11-22T13:54:24.501Z,4.32
2023-11-22T13:56:53.158Z,4.10
2023-11-22T13:59:21.087Z,4.30
2023-11-22T14:01:50.319Z,4.28
2023-11-22T14:04:19.403Z,4.18
2023-11-22T14:06:47.241Z,4.03
2023-11-22T14:09:16.175Z,4.20
2023-11-22T14:11:43.887Z,3.92
2023-11-22T14:14:14.121Z,3.72
2023-11-22T14:16:46.080Z,3.77
2023-11-22T14:19:14.543Z,4.18
2023-11-22T14:21:42.258Z,3.83
2023-11-22T14:24:10.498Z,3.25
2023-11-22T14:26:38.239Z,3.78
2023-11-22T14:29:07.318Z,4.07
2023-11-22T14:31:35.186Z,4.20
2023-11-22T14:34:06.767Z,3.80
2023-11-22T14:36:34.572Z,4.63
2023-11-22T14:39:02.096Z,4.57
2023-11-22T14:41:31.099Z,3.80
2023-11-22T14:43:58.965Z,4.30
2023-11-22T14:46:26.870Z,3.85
2023-11-22T14:48:54.558Z,4.45
2023-11-22T14:51:22.333Z,4.07
2023-11-22T14:53:50.244Z,4.85
2023-11-22T14:56:18.944Z,4.00
2023-11-22T14:58:54.913Z,3.70
2023-11-22T15:01:24.451Z,4.07
2023-11-22T15:03:53.976Z,4.15
2023-11-22T15:06:22.259Z,4.45
2023-11-22T15:08:52.136Z,4.53
2023-11-22T15:11:20.104Z,4.25
2023-11-22T15:13:48.284Z,4.20
2023-11-22T15:16:17.386Z,4.00
2023-11-22T15:18:45.107Z,3.75
2023-11-22T15:21:13.141Z,3.95
2023-11-22T15:23:40.841Z,3.15
2023-11-22T15:26:08.603Z,3.75
2023-11-22T15:28:37.071Z,4.05
2023-11-22T15:31:05.106Z,4.13
2023-11-22T15:33:33.668Z,4.20
2023-11-22T15:36:02.344Z,3.47
2023-11-22T15:38:30.168Z,4.18
2023-11-22T15:41:07.831Z,4.00
2023-11-22T15:43:44.030Z,4.32
2023-11-22T15:46:14.234Z,4.03
2023-11-22T15:48:42.180Z,3.80
2023-11-22T15:51:12.984Z,3.92
2023-11-22T15:53:40.721Z,4.28
2023-11-22T15:56:11.594Z,4.05
2023-11-22T15:58:43.157Z,3.63
2023-11-22T16:01:12.196Z,4.68
2023-11-22T16:03:40.968Z,4.50
2023-11-22T16:06:12.478Z,5.05
2023-11-22T16:08:40.248Z,4.45
2023-11-22T16:11:11.905Z,4.55
2023-11-22T16:13:41.214Z,4.40
2023-11-22T16:16:10.015Z,3.72
2023-11-22T16:18:39.791Z,4.35
2023-11-22T16:21:09.632Z,5.05
2023-11-22T16:23:37.365Z,4.68
2023-11-22T16:26:06.008Z,4.20
2023-11-22T16:28:34.916Z,4.22
2023-11-22T16:31:05.320Z,4.38
2023-11-22T16:33:33.316Z,4.88
2023-11-22T16:36:02.020Z,4.05
2023-11-22T16:38:29.870Z,4.65
2023-11-22T16:40:57.720Z,5.05
2023-11-22T16:43:25.575Z,4.63
2023-11-22T16:45:53.361Z,5.10
2023-11-22T16:48:21.198Z,5.70
2023-11-22T16:50:51.174Z,5.20
2023-11-22T16:53:18.926Z,5.55
2023-11-22T16:55:47.006Z,4.78
2023-11-22T16:58:14.679Z,4.43
2023-11-22T17:00:42.352Z,4.88
2023-11-22T17:03:10.236Z,5.20
2023-11-22T17:05:38.118Z,6.25
2023-11-22T17:08:05.913Z,5.10
2023-11-22T17:10:45.770Z,5.63
2023-11-22T17:13:16.328Z,5.43
2023-11-22T17:15:45.766Z,5.68
2023-11-22T17:18:15.853Z,4.90
2023-11-22T17:20:47.300Z,4.82
2023-11-22T17:23:15.648Z,6.20
2023-11-22T17:25:44.588Z,5.10
2023-11-22T17:28:12.342Z,4.72
2023-11-22T17:30:40.080Z,5.90
2023-11-22T17:33:08.143Z,5.07
2023-11-22T17:35:38.703Z,5.20
2023-11-22T17:38:06.515Z,5.38
2023-11-22T17:40:34.222Z,4.85
2023-11-22T17:43:02.648Z,4.65
2023-11-22T17:45:30.834Z,4.10
2023-11-22T17:47:59.784Z,4.93
2023-11-22T17:50:27.886Z,4.15
2023-11-22T17:52:55.918Z,3.75
2023-11-22T17:55:23.689Z,3.38
2023-11-22T17:57:51.418Z,3.10
2023-11-22T18:00:20.527Z,3.15
2023-11-22T18:02:48.429Z,3.10
2023-11-22T18:05:22.371Z,2.90
2023-11-22T18:07:53.554Z,2.97
2023-11-22T18:10:21.317Z,3.78
2023-11-22T18:12:49.136Z,3.38
2023-11-22T18:15:16.849Z,2.58
2023-11-22T18:17:44.924Z,3.13
2023-11-22T18:20:12.930Z,3.72
2023-11-22T18:22:40.808Z,3.90
2023-11-22T18:25:09.066Z,4.60
2023-11-22T18:27:37.292Z,3.83
2023-11-22T18:30:06.036Z,3.90
2023-11-22T18:32:33.818Z,3.80
2023-11-22T18:35:01.565Z,3.50
2023-11-22T18:37:29.566Z,3.42
2023-11-22T18:40:00.463Z,4.47
2023-11-22T18:42:29.379Z,3.78
2023-11-22T18:44:57.686Z,4.10
2023-11-22T18:47:25.802Z,3.78
2023-11-22T18:49:55.226Z,4.20
2023-11-22T18:52:23.678Z,4.00
2023-11-22T18:54:51.335Z,4.32
2023-11-22T18:57:19.101Z,3.28
2023-11-22T18:59:47.565Z,2.92
2023-11-22T19:02:15.780Z,2.30
2023-11-22T19:04:44.146Z,2.83
2023-11-22T19:07:14.121Z,2.33
2023-11-22T19:09:42.009Z,2.47
2023-11-22T19:12:12.651Z,1.98
2023-11-22T19:14:40.559Z,2.35
2023-11-22T19:17:09.923Z,2.25
2023-11-22T19:19:39.578Z,2.47
2023-11-22T19:22:07.970Z,2.35
2023-11-22T19:24:35.776Z,2.30
2023-11-22T19:27:03.602Z,2.05
2023-11-22T19:29:31.544Z,2.10
2023-11-22T19:31:59.872Z,1.95
2023-11-22T19:34:27.645Z,2.47
2023-11-22T19:36:56.543Z,2.50
2023-11-22T19:39:25.942Z,2.20
2023-11-22T19:41:54.069Z,2.67
2023-11-22T19:44:24.295Z,3.15
2023-11-22T19:46:52.048Z,2.63
2023-11-22T19:49:19.870Z,2.47
2023-11-22T19:51:47.651Z,2.17
2023-11-22T19:54:15.482Z,2.33
2023-11-22T19:56:43.393Z,2.22
2023-11-22T19:59:11.617Z,1.98
2023-11-22T20:01:44.025Z,2.03
2023-11-22T20:04:12.848Z,2.80
2023-11-22T20:06:41.331Z,2.13
2023-11-22T20:09:09.447Z,1.77
2023-11-22T20:11:37.510Z,2.15
2023-11-22T20:14:05.581Z,1.92
2023-11-22T20:16:34.185Z,2.35
2023-11-22T20:19:02.113Z,2.05
2023-11-22T20:21:29.782Z,1.75
2023-11-22T20:23:57.559Z,1.92
2023-11-22T20:26:25.471Z,1.98
2023-11-22T20:28:53.195Z,2.38
2023-11-22T20:31:21.242Z,2.10
2023-11-22T20:33:49.003Z,2.00
2023-11-22T20:36:16.809Z,2.10
2023-11-22T20:38:51.164Z,1.83
2023-11-22T20:41:23.112Z,2.03
2023-11-22T20:46:18.867Z,2.00
2023-11-22T20:48:46.950Z,2.60
2023-11-22T20:51:14.957Z,1.80
2023-11-22T20:53:42.850Z,1.60
2023-11-22T20:56:11.284Z,1.65
2023-11-22T20:58:39.076Z,1.70
2023-11-22T21:01:07.259Z,1.88
2023-11-22T21:03:34.994Z,1.65
2023-11-22T21:06:02.795Z,2.40
2023-11-22T21:08:30.701Z,1.70
2023-11-22T21:10:58.545Z,1.60
2023-11-22T21:13:26.404Z,1.73
2023-11-22T21:15:54.892Z,1.80
2023-11-22T21:18:22.876Z,1.77
2023-11-22T21:20:50.730Z,1.70
2023-11-22T21:23:18.547Z,1.70
2023-11-22T21:25:46.284Z,1.33
2023-11-22T21:28:14.101Z,1.40
2023-11-22T21:30:42.046Z,1.50
2023-11-22T21:33:09.925Z,1.65
2023-11-22T21:35:37.564Z,1.67
2023-11-22T21:38:05.637Z,1.67
2023-11-22T21:40:34.890Z,2.10
2023-11-22T21:43:02.727Z,1.30
2023-11-22T21:45:30.504Z,1.20
2023-11-22T21:47:58.593Z,1.80
2023-11-22T21:50:26.568Z,1.50
2023-11-22T21:52:54.438Z,1.92
2023-11-22T21:55:22.735Z,1.50
2023-11-22T21:57:50.463Z,2.08
2023-11-22T22:00:18.178Z,1.90
2023-11-22T22:02:46.274Z,1.90
2023-11-22T22:05:14.312Z,1.83
2023-11-22T22:07:41.931Z,1.63
2023-11-22T22:10:10.797Z,1.77
2023-11-22T22:12:38.428Z,2.08
2023-11-22T22:15:06.572Z,1.90
2023-11-22T22:17:34.561Z,1.85
2023-11-22T22:20:03.367Z,1.65
2023-11-22T22:22:31.460Z,1.58
2023-11-22T22:24:59.360Z,1.42
2023-11-22T22:27:27.308Z,1.60
2023-11-22T22:29:55.073Z,2.15
2023-11-22T22:32:22.955Z,1.58
2023-11-22T22:34:50.802Z,1.25
2023-11-22T22:37:18.725Z,1.50
2023-11-22T22:39:46.758Z,1.15
2023-11-22T22:42:14.627Z,1.30
2023-11-22T22:44:42.320Z,1.50
2023-11-22T22:47:12.817Z,1.80
2023-11-22T22:49:40.971Z,1.50
2023-11-22T22:52:12.018Z,1.35
2023-11-22T22:54:41.480Z,1.42
2023-11-22T22:57:09.366Z,1.60
2023-11-22T22:59:37.185Z,1.15
2023-11-22T23:02:05.192Z,1.50
2023-11-22T23:04:34.984Z,1.05
2023-11-22T23:07:02.875Z,1.42
2023-11-22T23:09:30.630Z,1.20
2023-11-22T23:11:58.297Z,1.73
2023-11-22T23:14:26.075Z,1.67
2023-11-22T23:16:53.709Z,1.50
2023-11-22T23:19:22.041Z,1.70
2023-11-22T23:21:50.502Z,1.70
2023-11-22T23:24:19.675Z,1.42
2023-11-22T23:26:47.570Z,1.60
2023-11-22T23:29:18.064Z,1.50
2023-11-22T23:31:46.148Z,2.05
2023-11-22T23:34:14.035Z,1.80
2023-11-22T23:36:42.867Z,1.70
2023-11-22T23:39:13.876Z,1.58
2023-11-22T23:41:41.780Z,2.22
2023-11-22T23:44:12.321Z,1.42
2023-11-22T23:46:42.679Z,1.88
2023-11-22T23:49:10.921Z,1.80
2023-11-22T23:51:38.807Z,1.52
2023-11-22T23:54:06.713Z,1.73
2023-11-22T23:56:38.314Z,1.48
2023-11-22T23:59:08.700Z,2.10
